sensor_id;sensor_type;location;lat;lon;timestamp;P1;durP1;ratioP1;P2;durP2;ratioP2
1725;SDS011;41776;48.260;8.928;2024-03-08T00:02:10;38.93;;;16.80;;
1725;SDS011;41776;48.260;8.928;2024-03-08T00:04:37;42.77;;;17.67;;
1725;SDS011;41776;48.260;8.928;2024-03-08T00:07:04;39.77;;;16.67;;
1725;SDS011;41776;48.260;8.928;2024-03-08T00:09:31;36.23;;;16.30;;
1725;SDS011;41776;48.260;8.928;2024-03-08T00:11:58;36.30;;;16.63;;
1725;SDS011;41776;48.260;8.928;2024-03-08T00:14:26;41.03;;;17.70;;
1725;SDS011;41776;48.260;8.928;2024-03-08T00:16:52;38.10;;;16.90;;
1725;SDS011;41776;48.260;8.928;2024-03-08T00:19:19;43.07;;;17.50;;
1725;SDS011;41776;48.260;8.928;2024-03-08T00:21:45;38.83;;;16.50;;
1725;SDS011;41776;48.260;8.928;2024-03-08T00:24:12;36.90;;;17.43;;
1725;SDS011;41776;48.260;8.928;2024-03-08T00:26:39;47.50;;;18.70;;
1725;SDS011;41776;48.260;8.928;2024-03-08T00:29:07;47.27;;;18.17;;
1725;SDS011;41776;48.260;8.928;2024-03-08T00:31:35;39.00;;;16.93;;
1725;SDS011;41776;48.260;8.928;2024-03-08T00:34:01;38.17;;;17.37;;
1725;SDS011;41776;48.260;8.928;2024-03-08T00:36:28;41.93;;;17.07;;
1725;SDS011;41776;48.260;8.928;2024-03-08T00:38:55;39.80;;;17.80;;
1725;SDS011;41776;48.260;8.928;2024-03-08T00:41:21;41.50;;;17.87;;
1725;SDS011;41776;48.260;8.928;2024-03-08T00:43:48;38.93;;;17.90;;
1725;SDS011;41776;48.260;8.928;2024-03-08T00:46:17;38.63;;;15.97;;
1725;SDS011;41776;48.260;8.928;2024-03-08T00:48:45;43.60;;;17.93;;
1725;SDS011;41776;48.260;8.928;2024-03-08T00:51:12;50.13;;;17.37;;
1725;SDS011;41776;48.260;8.928;2024-03-08T00:53:40;43.37;;;18.73;;
1725;SDS011;41776;48.260;8.928;2024-03-08T00:56:08;44.50;;;17.43;;
1725;SDS011;41776;48.260;8.928;2024-03-08T00:58:35;41.20;;;18.13;;
1725;SDS011;41776;48.260;8.928;2024-03-08T01:01:02;38.33;;;17.20;;
1725;SDS011;41776;48.260;8.928;2024-03-08T01:03:29;43.80;;;18.83;;
1725;SDS011;41776;48.260;8.928;2024-03-08T01:06:00;43.20;;;17.20;;
1725;SDS011;41776;48.260;8.928;2024-03-08T01:08:27;41.87;;;17.90;;
1725;SDS011;41776;48.260;8.928;2024-03-08T01:10:53;38.90;;;17.93;;
1725;SDS011;41776;48.260;8.928;2024-03-08T01:13:20;38.70;;;16.93;;
1725;SDS011;41776;48.260;8.928;2024-03-08T01:15:46;38.20;;;16.40;;
1725;SDS011;41776;48.260;8.928;2024-03-08T01:18:13;41.57;;;18.17;;
1725;SDS011;41776;48.260;8.928;2024-03-08T01:20:39;49.10;;;18.67;;
1725;SDS011;41776;48.260;8.928;2024-03-08T01:23:09;42.13;;;18.20;;
1725;SDS011;41776;48.260;8.928;2024-03-08T01:25:36;38.97;;;17.97;;
1725;SDS011;41776;48.260;8.928;2024-03-08T01:28:03;42.97;;;17.83;;
1725;SDS011;41776;48.260;8.928;2024-03-08T01:30:29;44.03;;;19.67;;
1725;SDS011;41776;48.260;8.928;2024-03-08T01:33:00;46.27;;;19.40;;
1725;SDS011;41776;48.260;8.928;2024-03-08T01:35:27;46.17;;;18.30;;
1725;SDS011;41776;48.260;8.928;2024-03-08T01:37:54;49.67;;;19.70;;
1725;SDS011;41776;48.260;8.928;2024-03-08T01:40:22;50.17;;;19.50;;
1725;SDS011;41776;48.260;8.928;2024-03-08T01:42:48;43.53;;;19.13;;
1725;SDS011;41776;48.260;8.928;2024-03-08T01:45:15;54.27;;;20.80;;
1725;SDS011;41776;48.260;8.928;2024-03-08T01:47:41;49.97;;;19.53;;
1725;SDS011;41776;48.260;8.928;2024-03-08T01:50:08;50.80;;;20.40;;
1725;SDS011;41776;48.260;8.928;2024-03-08T01:52:35;49.13;;;20.17;;
1725;SDS011;41776;48.260;8.928;2024-03-08T01:55:05;45.23;;;19.87;;
1725;SDS011;41776;48.260;8.928;2024-03-08T01:57:34;46.70;;;18.67;;
1725;SDS011;41776;48.260;8.928;2024-03-08T02:00:03;52.80;;;20.43;;
1725;SDS011;41776;48.260;8.928;2024-03-08T02:02:30;48.43;;;19.17;;
1725;SDS011;41776;48.260;8.928;2024-03-08T02:04:58;47.40;;;19.97;;
1725;SDS011;41776;48.260;8.928;2024-03-08T02:07:26;46.47;;;20.23;;
1725;SDS011;41776;48.260;8.928;2024-03-08T02:09:53;49.47;;;19.03;;
1725;SDS011;41776;48.260;8.928;2024-03-08T02:12:19;47.17;;;19.27;;
1725;SDS011;41776;48.260;8.928;2024-03-08T02:14:48;55.43;;;20.67;;
1725;SDS011;41776;48.260;8.928;2024-03-08T02:17:14;49.33;;;20.50;;
1725;SDS011;41776;48.260;8.928;2024-03-08T02:19:40;51.67;;;21.53;;
1725;SDS011;41776;48.260;8.928;2024-03-08T02:22:08;47.93;;;20.53;;
1725;SDS011;41776;48.260;8.928;2024-03-08T02:24:35;52.53;;;21.30;;
1725;SDS011;41776;48.260;8.928;2024-03-08T02:27:01;45.73;;;20.77;;
1725;SDS011;41776;48.260;8.928;2024-03-08T02:29:28;45.97;;;20.67;;
1725;SDS011;41776;48.260;8.928;2024-03-08T02:31:55;56.03;;;21.67;;
1725;SDS011;41776;48.260;8.928;2024-03-08T02:34:22;49.10;;;20.90;;
1725;SDS011;41776;48.260;8.928;2024-03-08T02:36:48;53.90;;;21.63;;
1725;SDS011;41776;48.260;8.928;2024-03-08T02:39:16;48.30;;;20.83;;
1725;SDS011;41776;48.260;8.928;2024-03-08T02:41:44;46.60;;;20.03;;
1725;SDS011;41776;48.260;8.928;2024-03-08T02:44:11;48.13;;;20.57;;
1725;SDS011;41776;48.260;8.928;2024-03-08T02:46:38;46.97;;;20.30;;
1725;SDS011;41776;48.260;8.928;2024-03-08T02:49:04;51.27;;;19.97;;
1725;SDS011;41776;48.260;8.928;2024-03-08T02:51:32;46.60;;;20.20;;
1725;SDS011;41776;48.260;8.928;2024-03-08T02:54:00;48.47;;;20.83;;
1725;SDS011;41776;48.260;8.928;2024-03-08T02:56:28;44.97;;;19.27;;
1725;SDS011;41776;48.260;8.928;2024-03-08T02:58:55;47.23;;;20.37;;
1725;SDS011;41776;48.260;8.928;2024-03-08T03:01:21;39.30;;;18.17;;
1725;SDS011;41776;48.260;8.928;2024-03-08T03:03:48;46.47;;;19.03;;
1725;SDS011;41776;48.260;8.928;2024-03-08T03:06:14;49.53;;;18.77;;
1725;SDS011;41776;48.260;8.928;2024-03-08T03:08:40;41.57;;;19.07;;
1725;SDS011;41776;48.260;8.928;2024-03-08T03:11:07;42.50;;;19.50;;
1725;SDS011;41776;48.260;8.928;2024-03-08T03:13:35;46.17;;;18.97;;
1725;SDS011;41776;48.260;8.928;2024-03-08T03:16:03;39.50;;;17.00;;
1725;SDS011;41776;48.260;8.928;2024-03-08T03:18:30;42.00;;;18.33;;
1725;SDS011;41776;48.260;8.928;2024-03-08T03:20:57;41.07;;;18.00;;
1725;SDS011;41776;48.260;8.928;2024-03-08T03:23:24;45.60;;;19.57;;
1725;SDS011;41776;48.260;8.928;2024-03-08T03:25:51;40.33;;;17.60;;
1725;SDS011;41776;48.260;8.928;2024-03-08T03:28:18;43.97;;;18.17;;
1725;SDS011;41776;48.260;8.928;2024-03-08T03:30:48;43.40;;;19.93;;
1725;SDS011;41776;48.260;8.928;2024-03-08T03:33:14;42.87;;;18.13;;
1725;SDS011;41776;48.260;8.928;2024-03-08T03:35:42;41.07;;;17.47;;
1725;SDS011;41776;48.260;8.928;2024-03-08T03:38:09;44.43;;;19.27;;
1725;SDS011;41776;48.260;8.928;2024-03-08T03:40:36;42.73;;;18.53;;
1725;SDS011;41776;48.260;8.928;2024-03-08T03:43:03;39.07;;;17.67;;
1725;SDS011;41776;48.260;8.928;2024-03-08T03:45:30;39.70;;;17.23;;
1725;SDS011;41776;48.260;8.928;2024-03-08T03:48:01;41.57;;;18.33;;
1725;SDS011;41776;48.260;8.928;2024-03-08T03:50:28;39.70;;;18.97;;
1725;SDS011;41776;48.260;8.928;2024-03-08T03:52:54;39.90;;;18.20;;
1725;SDS011;41776;48.260;8.928;2024-03-08T03:55:21;42.40;;;18.37;;
1725;SDS011;41776;48.260;8.928;2024-03-08T03:57:47;39.90;;;17.43;;
1725;SDS011;41776;48.260;8.928;2024-03-08T04:00:14;39.73;;;17.43;;
1725;SDS011;41776;48.260;8.928;2024-03-08T04:02:41;43.63;;;18.30;;
1725;SDS011;41776;48.260;8.928;2024-03-08T04:05:09;43.13;;;17.43;;
1725;SDS011;41776;48.260;8.928;2024-03-08T04:07:37;37.67;;;17.60;;
1725;SDS011;41776;48.260;8.928;2024-03-08T04:10:05;40.03;;;17.60;;
1725;SDS011;41776;48.260;8.928;2024-03-08T04:12:33;37.47;;;16.67;;
1725;SDS011;41776;48.260;8.928;2024-03-08T04:15:00;36.43;;;15.77;;
1725;SDS011;41776;48.260;8.928;2024-03-08T04:17:27;37.00;;;17.17;;
1725;SDS011;41776;48.260;8.928;2024-03-08T04:19:53;38.07;;;17.07;;
1725;SDS011;41776;48.260;8.928;2024-03-08T04:22:21;35.33;;;17.23;;
1725;SDS011;41776;48.260;8.928;2024-03-08T04:24:48;33.20;;;15.80;;
1725;SDS011;41776;48.260;8.928;2024-03-08T04:27:14;39.47;;;17.10;;
1725;SDS011;41776;48.260;8.928;2024-03-08T04:29:41;42.37;;;18.47;;
1725;SDS011;41776;48.260;8.928;2024-03-08T04:32:07;32.53;;;15.90;;
1725;SDS011;41776;48.260;8.928;2024-03-08T04:34:34;38.20;;;16.80;;
1725;SDS011;41776;48.260;8.928;2024-03-08T04:37:01;40.13;;;17.57;;
1725;SDS011;41776;48.260;8.928;2024-03-08T04:39:31;37.97;;;16.70;;
1725;SDS011;41776;48.260;8.928;2024-03-08T04:41:58;37.80;;;17.57;;
1725;SDS011;41776;48.260;8.928;2024-03-08T04:44:28;37.73;;;17.30;;
1725;SDS011;41776;48.260;8.928;2024-03-08T04:46:54;33.30;;;16.43;;
1725;SDS011;41776;48.260;8.928;2024-03-08T04:49:21;33.90;;;16.43;;
1725;SDS011;41776;48.260;8.928;2024-03-08T04:51:47;35.10;;;16.37;;
1725;SDS011;41776;48.260;8.928;2024-03-08T04:54:14;38.23;;;16.57;;
1725;SDS011;41776;48.260;8.928;2024-03-08T04:56:42;36.20;;;16.23;;
1725;SDS011;41776;48.260;8.928;2024-03-08T04:59:08;34.30;;;15.97;;
1725;SDS011;41776;48.260;8.928;2024-03-08T05:01:35;36.17;;;16.80;;
1725;SDS011;41776;48.260;8.928;2024-03-08T05:04:02;38.67;;;16.63;;
1725;SDS011;41776;48.260;8.928;2024-03-08T05:06:30;34.13;;;16.40;;
1725;SDS011;41776;48.260;8.928;2024-03-08T05:08:57;35.23;;;15.77;;
1725;SDS011;41776;48.260;8.928;2024-03-08T05:11:23;35.13;;;15.60;;
1725;SDS011;41776;48.260;8.928;2024-03-08T05:13:51;32.57;;;14.97;;
1725;SDS011;41776;48.260;8.928;2024-03-08T05:16:18;33.60;;;15.53;;
1725;SDS011;41776;48.260;8.928;2024-03-08T05:18:47;30.23;;;14.10;;
1725;SDS011;41776;48.260;8.928;2024-03-08T05:21:14;34.17;;;15.17;;
1725;SDS011;41776;48.260;8.928;2024-03-08T05:23:42;35.53;;;16.20;;
1725;SDS011;41776;48.260;8.928;2024-03-08T05:26:09;37.03;;;16.03;;
1725;SDS011;41776;48.260;8.928;2024-03-08T05:28:35;32.30;;;15.23;;
1725;SDS011;41776;48.260;8.928;2024-03-08T05:31:03;31.30;;;14.00;;
1725;SDS011;41776;48.260;8.928;2024-03-08T05:33:30;37.37;;;15.43;;
1725;SDS011;41776;48.260;8.928;2024-03-08T05:35:56;31.77;;;14.80;;
1725;SDS011;41776;48.260;8.928;2024-03-08T05:38:24;33.83;;;15.20;;
1725;SDS011;41776;48.260;8.928;2024-03-08T05:40:50;34.07;;;14.97;;
1725;SDS011;41776;48.260;8.928;2024-03-08T05:43:17;32.37;;;15.07;;
1725;SDS011;41776;48.260;8.928;2024-03-08T05:45:44;33.90;;;16.13;;
1725;SDS011;41776;48.260;8.928;2024-03-08T05:48:13;33.30;;;15.30;;
1725;SDS011;41776;48.260;8.928;2024-03-08T05:50:39;33.37;;;15.00;;
1725;SDS011;41776;48.260;8.928;2024-03-08T05:53:05;35.00;;;15.13;;
1725;SDS011;41776;48.260;8.928;2024-03-08T05:55:32;36.20;;;15.47;;
1725;SDS011;41776;48.260;8.928;2024-03-08T05:58:00;31.57;;;14.60;;
1725;SDS011;41776;48.260;8.928;2024-03-08T06:00:27;30.63;;;14.07;;
1725;SDS011;41776;48.260;8.928;2024-03-08T06:02:53;34.53;;;13.77;;
1725;SDS011;41776;48.260;8.928;2024-03-08T06:05:22;30.23;;;14.23;;
1725;SDS011;41776;48.260;8.928;2024-03-08T06:07:49;29.23;;;14.00;;
1725;SDS011;41776;48.260;8.928;2024-03-08T06:10:18;34.63;;;14.97;;
1725;SDS011;41776;48.260;8.928;2024-03-08T06:12:45;30.47;;;14.40;;
1725;SDS011;41776;48.260;8.928;2024-03-08T06:15:11;25.97;;;13.00;;
1725;SDS011;41776;48.260;8.928;2024-03-08T06:17:39;31.60;;;14.30;;
1725;SDS011;41776;48.260;8.928;2024-03-08T06:20:06;32.67;;;15.13;;
1725;SDS011;41776;48.260;8.928;2024-03-08T06:22:39;32.07;;;14.73;;
1725;SDS011;41776;48.260;8.928;2024-03-08T06:25:10;30.70;;;13.63;;
1725;SDS011;41776;48.260;8.928;2024-03-08T06:27:38;29.53;;;13.93;;
1725;SDS011;41776;48.260;8.928;2024-03-08T06:30:06;32.87;;;14.80;;
1725;SDS011;41776;48.260;8.928;2024-03-08T06:32:34;28.60;;;13.93;;
1725;SDS011;41776;48.260;8.928;2024-03-08T06:35:01;29.37;;;13.57;;
1725;SDS011;41776;48.260;8.928;2024-03-08T06:37:29;32.75;;;17.30;;
1725;SDS011;41776;48.260;8.928;2024-03-08T06:39:58;29.03;;;14.53;;
1725;SDS011;41776;48.260;8.928;2024-03-08T06:42:25;29.00;;;13.90;;
1725;SDS011;41776;48.260;8.928;2024-03-08T06:44:52;31.87;;;14.37;;
1725;SDS011;41776;48.260;8.928;2024-03-08T06:47:21;44.37;;;18.87;;
1725;SDS011;41776;48.260;8.928;2024-03-08T06:49:50;29.00;;;12.90;;
1725;SDS011;41776;48.260;8.928;2024-03-08T06:52:17;26.07;;;11.57;;
1725;SDS011;41776;48.260;8.928;2024-03-08T06:54:43;28.17;;;12.80;;
1725;SDS011;41776;48.260;8.928;2024-03-08T06:57:11;27.57;;;12.60;;
1725;SDS011;41776;48.260;8.928;2024-03-08T06:59:39;27.70;;;12.70;;
1725;SDS011;41776;48.260;8.928;2024-03-08T07:02:05;26.70;;;12.43;;
1725;SDS011;41776;48.260;8.928;2024-03-08T07:04:34;28.03;;;12.67;;
1725;SDS011;41776;48.260;8.928;2024-03-08T07:07:03;27.17;;;12.40;;
1725;SDS011;41776;48.260;8.928;2024-03-08T07:09:29;27.77;;;12.83;;
1725;SDS011;41776;48.260;8.928;2024-03-08T07:11:56;26.43;;;11.67;;
1725;SDS011;41776;48.260;8.928;2024-03-08T07:14:24;30.73;;;12.77;;
1725;SDS011;41776;48.260;8.928;2024-03-08T07:16:50;26.30;;;12.43;;
1725;SDS011;41776;48.260;8.928;2024-03-08T07:19:17;24.43;;;11.37;;
1725;SDS011;41776;48.260;8.928;2024-03-08T07:21:44;25.23;;;12.53;;
1725;SDS011;41776;48.260;8.928;2024-03-08T07:24:12;25.17;;;12.23;;
1725;SDS011;41776;48.260;8.928;2024-03-08T07:27:03;27.50;;;12.30;;
1725;SDS011;41776;48.260;8.928;2024-03-08T07:29:31;25.83;;;12.47;;
1725;SDS011;41776;48.260;8.928;2024-03-08T07:31:57;25.33;;;12.03;;
1725;SDS011;41776;48.260;8.928;2024-03-08T07:34:37;24.43;;;12.83;;
1725;SDS011;41776;48.260;8.928;2024-03-08T07:37:04;25.57;;;11.80;;
1725;SDS011;41776;48.260;8.928;2024-03-08T07:39:36;24.93;;;12.17;;
1725;SDS011;41776;48.260;8.928;2024-03-08T07:42:03;21.17;;;10.90;;
1725;SDS011;41776;48.260;8.928;2024-03-08T07:44:29;23.00;;;11.90;;
1725;SDS011;41776;48.260;8.928;2024-03-08T07:46:58;24.27;;;11.90;;
1725;SDS011;41776;48.260;8.928;2024-03-08T07:49:25;24.17;;;11.03;;
1725;SDS011;41776;48.260;8.928;2024-03-08T07:51:51;21.90;;;11.03;;
1725;SDS011;41776;48.260;8.928;2024-03-08T07:54:18;27.27;;;11.60;;
1725;SDS011;41776;48.260;8.928;2024-03-08T07:56:45;25.17;;;11.63;;
1725;SDS011;41776;48.260;8.928;2024-03-08T07:59:11;22.30;;;10.97;;
1725;SDS011;41776;48.260;8.928;2024-03-08T08:01:38;22.30;;;11.30;;
1725;SDS011;41776;48.260;8.928;2024-03-08T08:04:06;21.63;;;10.87;;
1725;SDS011;41776;48.260;8.928;2024-03-08T08:06:37;23.37;;;12.07;;
1725;SDS011;41776;48.260;8.928;2024-03-08T08:09:06;21.83;;;10.47;;
1725;SDS011;41776;48.260;8.928;2024-03-08T08:11:39;23.10;;;11.20;;
1725;SDS011;41776;48.260;8.928;2024-03-08T08:14:11;24.47;;;11.17;;
1725;SDS011;41776;48.260;8.928;2024-03-08T08:16:39;23.67;;;10.07;;
1725;SDS011;41776;48.260;8.928;2024-03-08T08:19:08;20.20;;;10.30;;
1725;SDS011;41776;48.260;8.928;2024-03-08T08:21:35;25.57;;;10.17;;
1725;SDS011;41776;48.260;8.928;2024-03-08T08:24:02;20.67;;;10.80;;
1725;SDS011;41776;48.260;8.928;2024-03-08T08:26:30;19.70;;;9.63;;
1725;SDS011;41776;48.260;8.928;2024-03-08T08:28:57;20.17;;;10.13;;
1725;SDS011;41776;48.260;8.928;2024-03-08T08:31:24;22.07;;;10.33;;
1725;SDS011;41776;48.260;8.928;2024-03-08T08:33:51;20.23;;;10.33;;
1725;SDS011;41776;48.260;8.928;2024-03-08T08:36:24;24.10;;;10.90;;
1725;SDS011;41776;48.260;8.928;2024-03-08T08:38:50;20.77;;;9.80;;
1725;SDS011;41776;48.260;8.928;2024-03-08T08:41:19;23.33;;;10.33;;
1725;SDS011;41776;48.260;8.928;2024-03-08T08:43:46;19.13;;;9.63;;
1725;SDS011;41776;48.260;8.928;2024-03-08T08:46:16;17.17;;;9.00;;
1725;SDS011;41776;48.260;8.928;2024-03-08T08:48:43;19.63;;;9.73;;
1725;SDS011;41776;48.260;8.928;2024-03-08T08:51:11;16.27;;;9.50;;
1725;SDS011;41776;48.260;8.928;2024-03-08T08:53:39;19.03;;;9.07;;
1725;SDS011;41776;48.260;8.928;2024-03-08T08:56:07;19.63;;;9.37;;
1725;SDS011;41776;48.260;8.928;2024-03-08T08:58:37;16.73;;;8.70;;
1725;SDS011;41776;48.260;8.928;2024-03-08T09:01:14;18.57;;;9.43;;
1725;SDS011;41776;48.260;8.928;2024-03-08T09:03:43;17.23;;;8.90;;
1725;SDS011;41776;48.260;8.928;2024-03-08T09:06:11;16.80;;;8.63;;
1725;SDS011;41776;48.260;8.928;2024-03-08T09:08:39;18.07;;;9.57;;
1725;SDS011;41776;48.260;8.928;2024-03-08T09:11:11;22.73;;;9.73;;
1725;SDS011;41776;48.260;8.928;2024-03-08T09:13:37;20.57;;;10.10;;
1725;SDS011;41776;48.260;8.928;2024-03-08T09:16:05;19.13;;;9.00;;
1725;SDS011;41776;48.260;8.928;2024-03-08T09:18:33;14.63;;;8.70;;
1725;SDS011;41776;48.260;8.928;2024-03-08T09:21:00;19.13;;;9.23;;
1725;SDS011;41776;48.260;8.928;2024-03-08T09:23:26;17.70;;;8.80;;
1725;SDS011;41776;48.260;8.928;2024-03-08T09:25:56;21.00;;;9.83;;
1725;SDS011;41776;48.260;8.928;2024-03-08T09:28:23;14.90;;;8.30;;
1725;SDS011;41776;48.260;8.928;2024-03-08T09:30:50;16.90;;;8.90;;
1725;SDS011;41776;48.260;8.928;2024-03-08T09:33:19;17.03;;;8.63;;
1725;SDS011;41776;48.260;8.928;2024-03-08T09:35:49;17.23;;;8.57;;
1725;SDS011;41776;48.260;8.928;2024-03-08T09:38:21;19.60;;;9.10;;
1725;SDS011;41776;48.260;8.928;2024-03-08T09:40:47;19.45;;;10.50;;
1725;SDS011;41776;48.260;8.928;2024-03-08T09:43:15;17.63;;;9.57;;
1725;SDS011;41776;48.260;8.928;2024-03-08T09:45:44;17.33;;;9.00;;
1725;SDS011;41776;48.260;8.928;2024-03-08T09:48:11;18.83;;;8.83;;
1725;SDS011;41776;48.260;8.928;2024-03-08T09:50:39;17.40;;;8.27;;
1725;SDS011;41776;48.260;8.928;2024-03-08T09:53:06;19.10;;;9.17;;
1725;SDS011;41776;48.260;8.928;2024-03-08T09:55:34;18.07;;;9.10;;
1725;SDS011;41776;48.260;8.928;2024-03-08T09:58:01;17.80;;;9.30;;
1725;SDS011;41776;48.260;8.928;2024-03-08T10:01:05;16.77;;;8.73;;
1725;SDS011;41776;48.260;8.928;2024-03-08T10:03:35;18.03;;;9.27;;
1725;SDS011;41776;48.260;8.928;2024-03-08T10:06:01;18.30;;;9.23;;
1725;SDS011;41776;48.260;8.928;2024-03-08T10:08:28;16.60;;;8.57;;
1725;SDS011;41776;48.260;8.928;2024-03-08T10:10:55;17.70;;;8.43;;
1725;SDS011;41776;48.260;8.928;2024-03-08T10:13:23;16.97;;;8.60;;
1725;SDS011;41776;48.260;8.928;2024-03-08T10:15:51;17.53;;;8.93;;
1725;SDS011;41776;48.260;8.928;2024-03-08T10:18:20;20.00;;;8.23;;
1725;SDS011;41776;48.260;8.928;2024-03-08T10:21:01;13.97;;;7.83;;
1725;SDS011;41776;48.260;8.928;2024-03-08T10:23:30;16.03;;;8.10;;
1725;SDS011;41776;48.260;8.928;2024-03-08T10:25:56;17.83;;;8.43;;
1725;SDS011;41776;48.260;8.928;2024-03-08T10:28:35;16.57;;;8.17;;
1725;SDS011;41776;48.260;8.928;2024-03-08T10:31:01;13.87;;;8.00;;
1725;SDS011;41776;48.260;8.928;2024-03-08T10:33:29;16.33;;;8.00;;
1725;SDS011;41776;48.260;8.928;2024-03-08T10:35:56;17.30;;;7.80;;
1725;SDS011;41776;48.260;8.928;2024-03-08T10:38:23;15.73;;;8.80;;
1725;SDS011;41776;48.260;8.928;2024-03-08T10:41:07;19.03;;;8.43;;
1725;SDS011;41776;48.260;8.928;2024-03-08T10:43:47;14.73;;;7.83;;
1725;SDS011;41776;48.260;8.928;2024-03-08T10:46:35;14.80;;;8.27;;
1725;SDS011;41776;48.260;8.928;2024-03-08T10:49:16;16.70;;;9.18;;
1725;SDS011;41776;48.260;8.928;2024-03-08T10:51:43;14.75;;;7.75;;
1725;SDS011;41776;48.260;8.928;2024-03-08T10:54:11;14.57;;;7.40;;
1725;SDS011;41776;48.260;8.928;2024-03-08T10:56:40;19.38;;;8.95;;
1725;SDS011;41776;48.260;8.928;2024-03-08T10:59:07;13.63;;;7.32;;
1725;SDS011;41776;48.260;8.928;2024-03-08T11:01:34;18.03;;;8.60;;
1725;SDS011;41776;48.260;8.928;2024-03-08T11:04:03;18.70;;;9.07;;
1725;SDS011;41776;48.260;8.928;2024-03-08T11:06:41;16.37;;;8.60;;
1725;SDS011;41776;48.260;8.928;2024-03-08T11:09:11;16.07;;;8.33;;
1725;SDS011;41776;48.260;8.928;2024-03-08T11:14:45;15.73;;;8.50;;
1725;SDS011;41776;48.260;8.928;2024-03-08T11:17:15;15.33;;;8.10;;
1725;SDS011;41776;48.260;8.928;2024-03-08T11:19:47;16.53;;;8.40;;
1725;SDS011;41776;48.260;8.928;2024-03-08T11:22:26;15.87;;;8.13;;
1725;SDS011;41776;48.260;8.928;2024-03-08T11:24:58;18.67;;;8.73;;
1725;SDS011;41776;48.260;8.928;2024-03-08T11:27:28;15.33;;;8.10;;
1725;SDS011;41776;48.260;8.928;2024-03-08T11:30:01;17.67;;;8.20;;
1725;SDS011;41776;48.260;8.928;2024-03-08T11:32:43;16.23;;;8.50;;
1725;SDS011;41776;48.260;8.928;2024-03-08T11:35:18;17.47;;;8.40;;
1725;SDS011;41776;48.260;8.928;2024-03-08T11:37:49;18.40;;;8.70;;
1725;SDS011;41776;48.260;8.928;2024-03-08T11:40:19;16.27;;;8.30;;
1725;SDS011;41776;48.260;8.928;2024-03-08T11:42:52;17.87;;;8.53;;
1725;SDS011;41776;48.260;8.928;2024-03-08T11:45:19;16.17;;;8.80;;
1725;SDS011;41776;48.260;8.928;2024-03-08T11:47:50;19.30;;;8.67;;
1725;SDS011;41776;48.260;8.928;2024-03-08T11:50:17;14.80;;;8.13;;
1725;SDS011;41776;48.260;8.928;2024-03-08T11:52:51;20.43;;;9.20;;
1725;SDS011;41776;48.260;8.928;2024-03-08T11:55:17;17.17;;;8.57;;
1725;SDS011;41776;48.260;8.928;2024-03-08T11:57:47;14.37;;;8.30;;
1725;SDS011;41776;48.260;8.928;2024-03-08T12:00:15;19.43;;;8.90;;
1725;SDS011;41776;48.260;8.928;2024-03-08T12:03:03;17.27;;;8.47;;
1725;SDS011;41776;48.260;8.928;2024-03-08T12:05:33;21.47;;;8.60;;
1725;SDS011;41776;48.260;8.928;2024-03-08T12:08:02;14.27;;;7.83;;
1725;SDS011;41776;48.260;8.928;2024-03-08T12:10:30;16.47;;;7.67;;
1725;SDS011;41776;48.260;8.928;2024-03-08T12:12:57;17.83;;;9.10;;
1725;SDS011;41776;48.260;8.928;2024-03-08T12:15:28;16.33;;;8.03;;
1725;SDS011;41776;48.260;8.928;2024-03-08T12:17:57;15.67;;;7.93;;
1725;SDS011;41776;48.260;8.928;2024-03-08T12:20:25;15.73;;;8.33;;
1725;SDS011;41776;48.260;8.928;2024-03-08T12:22:54;16.97;;;8.20;;
1725;SDS011;41776;48.260;8.928;2024-03-08T12:25:25;15.40;;;8.03;;
1725;SDS011;41776;48.260;8.928;2024-03-08T12:27:53;16.67;;;8.70;;
1725;SDS011;41776;48.260;8.928;2024-03-08T12:30:22;14.83;;;7.37;;
1725;SDS011;41776;48.260;8.928;2024-03-08T12:32:52;18.43;;;8.33;;
1725;SDS011;41776;48.260;8.928;2024-03-08T12:35:21;16.93;;;8.50;;
1725;SDS011;41776;48.260;8.928;2024-03-08T12:37:49;17.30;;;9.13;;
1725;SDS011;41776;48.260;8.928;2024-03-08T12:40:17;18.63;;;9.00;;
1725;SDS011;41776;48.260;8.928;2024-03-08T12:42:45;15.60;;;8.47;;
1725;SDS011;41776;48.260;8.928;2024-03-08T12:45:13;16.23;;;8.43;;
1725;SDS011;41776;48.260;8.928;2024-03-08T12:47:40;18.33;;;8.93;;
1725;SDS011;41776;48.260;8.928;2024-03-08T12:50:08;17.97;;;8.73;;
1725;SDS011;41776;48.260;8.928;2024-03-08T12:52:35;18.63;;;8.93;;
1725;SDS011;41776;48.260;8.928;2024-03-08T12:55:03;21.40;;;9.20;;
1725;SDS011;41776;48.260;8.928;2024-03-08T12:57:31;19.30;;;9.50;;
1725;SDS011;41776;48.260;8.928;2024-03-08T13:00:01;18.07;;;9.13;;
1725;SDS011;41776;48.260;8.928;2024-03-08T13:02:29;18.47;;;8.87;;
1725;SDS011;41776;48.260;8.928;2024-03-08T13:04:56;14.90;;;8.37;;
1725;SDS011;41776;48.260;8.928;2024-03-08T13:07:23;20.20;;;9.10;;
1725;SDS011;41776;48.260;8.928;2024-03-08T13:09:51;18.70;;;9.00;;
1725;SDS011;41776;48.260;8.928;2024-03-08T13:12:17;14.70;;;8.33;;
1725;SDS011;41776;48.260;8.928;2024-03-08T13:14:45;16.13;;;8.40;;
1725;SDS011;41776;48.260;8.928;2024-03-08T13:17:18;18.57;;;9.30;;
1725;SDS011;41776;48.260;8.928;2024-03-08T13:19:55;16.27;;;8.40;;
1725;SDS011;41776;48.260;8.928;2024-03-08T13:22:23;16.07;;;8.63;;
1725;SDS011;41776;48.260;8.928;2024-03-08T13:24:50;15.07;;;8.20;;
1725;SDS011;41776;48.260;8.928;2024-03-08T13:27:17;15.03;;;8.03;;
1725;SDS011;41776;48.260;8.928;2024-03-08T13:29:45;16.53;;;8.33;;
1725;SDS011;41776;48.260;8.928;2024-03-08T13:32:13;15.10;;;7.97;;
1725;SDS011;41776;48.260;8.928;2024-03-08T13:34:42;17.07;;;9.30;;
1725;SDS011;41776;48.260;8.928;2024-03-08T13:37:10;17.00;;;8.13;;
1725;SDS011;41776;48.260;8.928;2024-03-08T13:39:36;17.53;;;8.20;;
1725;SDS011;41776;48.260;8.928;2024-03-08T13:42:08;15.33;;;8.13;;
1725;SDS011;41776;48.260;8.928;2024-03-08T13:44:37;16.80;;;8.47;;
1725;SDS011;41776;48.260;8.928;2024-03-08T13:47:04;16.87;;;8.50;;
1725;SDS011;41776;48.260;8.928;2024-03-08T13:49:33;17.30;;;8.60;;
1725;SDS011;41776;48.260;8.928;2024-03-08T13:52:01;17.00;;;8.10;;
1725;SDS011;41776;48.260;8.928;2024-03-08T13:54:29;16.57;;;8.10;;
1725;SDS011;41776;48.260;8.928;2024-03-08T13:56:56;17.00;;;7.97;;
1725;SDS011;41776;48.260;8.928;2024-03-08T13:59:23;13.48;;;7.50;;
1725;SDS011;41776;48.260;8.928;2024-03-08T14:01:49;13.32;;;7.55;;
1725;SDS011;41776;48.260;8.928;2024-03-08T14:04:15;15.80;;;7.10;;
1725;SDS011;41776;48.260;8.928;2024-03-08T14:06:44;15.45;;;7.18;;
1725;SDS011;41776;48.260;8.928;2024-03-08T14:09:11;13.77;;;7.05;;
1725;SDS011;41776;48.260;8.928;2024-03-08T14:11:41;14.68;;;6.45;;
1725;SDS011;41776;48.260;8.928;2024-03-08T14:14:08;13.25;;;6.75;;
1725;SDS011;41776;48.260;8.928;2024-03-08T14:16:35;10.48;;;5.82;;
1725;SDS011;41776;48.260;8.928;2024-03-08T14:19:02;12.45;;;6.90;;
1725;SDS011;41776;48.260;8.928;2024-03-08T14:21:30;9.15;;;5.68;;
1725;SDS011;41776;48.260;8.928;2024-03-08T14:23:58;8.93;;;5.32;;
1725;SDS011;41776;48.260;8.928;2024-03-08T14:26:25;10.45;;;5.22;;
1725;SDS011;41776;48.260;8.928;2024-03-08T14:28:51;11.00;;;5.72;;
1725;SDS011;41776;48.260;8.928;2024-03-08T14:31:19;12.52;;;5.43;;
1725;SDS011;41776;48.260;8.928;2024-03-08T14:33:48;10.30;;;5.82;;
1725;SDS011;41776;48.260;8.928;2024-03-08T14:36:15;11.13;;;5.35;;
1725;SDS011;41776;48.260;8.928;2024-03-08T14:38:42;9.70;;;5.60;;
1725;SDS011;41776;48.260;8.928;2024-03-08T14:41:09;10.05;;;4.63;;
1725;SDS011;41776;48.260;8.928;2024-03-08T14:43:36;7.20;;;4.65;;
1725;SDS011;41776;48.260;8.928;2024-03-08T14:46:02;12.35;;;5.22;;
1725;SDS011;41776;48.260;8.928;2024-03-08T14:48:29;8.43;;;4.85;;
1725;SDS011;41776;48.260;8.928;2024-03-08T14:50:56;9.82;;;4.53;;